This is the latest recevied weather packets stored in our database for station/object LRSM. If no packets are shown the sender has not sent any weather packets the latest 10 day(s).
| Time | Temp. | Humidity | Pressure | Rain* | Wind** | Luminosity | Snow |
|---|---|---|---|---|---|---|---|
| 1777711719 | 16.11° C | 39% | 1024 hPa | - | - | - | - |
| 1777710813 | 16.11° C | 39% | 1024 hPa | - | - | - | - |
| 1777709912 | 15° C | 42% | 1024 hPa | - | - | - | - |
| 1777709012 | 15° C | 42% | 1024 hPa | - | - | - | - |
| 1777708112 | 15° C | 45% | 1024 hPa | - | - | - | - |
| 1777707212 | 15° C | 45% | 1024 hPa | - | - | - | - |
| 1777706312 | 12.78° C | 47% | 1024 hPa | - | - | - | - |
| 1777705413 | 12.78° C | 47% | 1024 hPa | - | - | - | - |
| 1777704512 | 12.22° C | 51% | 1024 hPa | - | - | - | - |
| 1777703612 | 12.22° C | 51% | 1024 hPa | - | - | - | - |
| 1777702712 | 11.11° C | 54% | 1024 hPa | - | - | - | - |
| 1777701813 | 11.11° C | 54% | 1024 hPa | - | - | - | - |
| 1777700912 | 10° C | 54% | 1024 hPa | - | - | - | - |
| 1777700013 | 10° C | 54% | 1024 hPa | - | - | - | - |
| 1777699112 | 7.22° C | 71% | 1024 hPa | - | - | - | - |
| 1777698212 | 7.22° C | 71% | 1024 hPa | - | - | - | - |
| 1777697312 | 6.11° C | 71% | 1024 hPa | - | - | - | - |
| 1777696412 | 6.11° C | 71% | 1024 hPa | - | - | - | - |
| 1777695512 | 3.89° C | 81% | 1023 hPa | - | - | - | - |
| 1777694612 | 3.89° C | 81% | 1023 hPa | - | - | - | - |
| 1777693791 | 3.89° C | 75% | 1023 hPa | - | - | - | - |
| 1777692812 | 3.89° C | 75% | 1023 hPa | - | - | - | - |
| 1777691912 | 2.22° C | 81% | 1023 hPa | - | - | - | - |
| 1777691012 | 2.22° C | 81% | 1023 hPa | - | - | - | - |
| 1777690112 | 2.78° C | 81% | 1023 hPa | - | - | - | - |
* Rain since midnight (hover to see other rain measurements)
** Current wind speed in m/s (hover to see current wind gust speed)